createdAt,value
2024-03-09T00:01:49.234Z,95473.53
2024-03-09T00:03:50.814Z,95479.78
2024-03-09T00:05:52.394Z,95484.72
2024-03-09T00:07:55.668Z,95482.09
2024-03-09T00:09:57.247Z,95480.28
2024-03-09T00:11:58.783Z,95483.72
2024-03-09T00:14:00.440Z,95478.78
2024-03-09T00:16:03.729Z,95473.53
2024-03-09T00:18:05.729Z,95483.06
2024-03-09T00:20:08.990Z,95486.81
2024-03-09T00:22:10.570Z,95473.16
2024-03-09T00:24:12.098Z,95470.06
2024-03-09T00:26:13.903Z,95457.06
2024-03-09T00:28:15.530Z,95492.22
2024-03-09T00:30:17.255Z,95497.31
2024-03-09T00:32:20.207Z,95476.81
2024-03-09T00:34:21.747Z,95474.81
2024-03-09T00:36:23.289Z,95473.88
2024-03-09T00:38:24.865Z,95468.28
2024-03-09T00:40:27.739Z,95464.00
2024-03-09T00:42:29.357Z,95458.75
2024-03-09T00:44:30.956Z,95440.84
2024-03-09T00:46:32.562Z,95444.63
2024-03-09T00:48:35.443Z,95450.53
2024-03-09T00:50:36.977Z,95453.47
2024-03-09T00:52:39.077Z,95457.41
2024-03-09T00:54:40.669Z,95454.28
2024-03-09T00:56:42.238Z,95451.31
2024-03-09T00:58:43.832Z,95443.94
2024-03-09T01:00:45.390Z,95443.91
2024-03-09T01:02:49.214Z,95456.06
2024-03-09T01:04:52.228Z,95453.78
2024-03-09T01:06:53.842Z,95451.16
2024-03-09T01:08:55.383Z,95444.41
2024-03-09T01:10:57.398Z,95426.53
2024-03-09T01:12:59.017Z,95434.41
2024-03-09T01:15:00.687Z,95431.31
2024-03-09T01:17:02.285Z,95435.38
2024-03-09T01:19:03.850Z,95443.09
2024-03-09T01:21:06.923Z,95442.28
2024-03-09T01:23:08.537Z,95440.19
2024-03-09T01:25:10.355Z,95439.03
2024-03-09T01:27:11.893Z,95444.47
2024-03-09T01:29:13.627Z,95442.84
2024-03-09T01:31:15.274Z,95448.41
2024-03-09T01:33:16.894Z,95413.75
2024-03-09T01:35:18.637Z,95439.34
2024-03-09T01:37:21.606Z,95445.75
2024-03-09T01:39:23.367Z,95440.00
2024-03-09T01:41:25.048Z,95438.03
2024-03-09T01:43:26.715Z,95439.66
2024-03-09T01:45:28.298Z,95438.38
2024-03-09T01:47:29.886Z,95442.94
2024-03-09T01:49:31.966Z,95434.41
2024-03-09T01:51:33.920Z,95439.84
2024-03-09T01:53:38.958Z,95437.75
2024-03-09T01:55:41.033Z,95441.34
2024-03-09T01:57:42.661Z,95439.53
2024-03-09T01:59:48.194Z,95428.19
2024-03-09T02:01:49.890Z,95434.41
2024-03-09T02:03:55.858Z,95422.94
2024-03-09T02:05:57.515Z,95436.06
2024-03-09T02:07:59.113Z,95431.44
2024-03-09T02:10:02.168Z,95421.56
2024-03-09T02:12:04.931Z,95419.25
2024-03-09T02:14:06.647Z,95426.50
2024-03-09T02:16:08.339Z,95413.19
2024-03-09T02:18:09.934Z,95420.91
2024-03-09T02:20:12.381Z,95417.94
2024-03-09T02:22:16.369Z,95419.09
2024-03-09T02:24:21.740Z,95408.75
2024-03-09T02:26:25.096Z,95412.84
2024-03-09T02:28:26.685Z,95398.72
2024-03-09T02:30:28.313Z,95405.59
2024-03-09T02:32:30.822Z,95377.03
2024-03-09T02:34:32.543Z,95409.41
2024-03-09T02:36:35.175Z,95392.78
2024-03-09T02:38:36.743Z,95399.53
2024-03-09T02:40:38.460Z,95397.25
2024-03-09T02:42:41.978Z,95365.03
2024-03-09T02:44:43.581Z,95394.91
2024-03-09T02:46:45.157Z,95396.91
2024-03-09T02:48:47.213Z,95388.66
2024-03-09T02:50:48.797Z,95384.88
2024-03-09T02:52:50.343Z,95389.63
2024-03-09T02:54:51.914Z,95382.41
2024-03-09T02:56:53.516Z,95352.47
2024-03-09T02:58:56.554Z,95371.25
2024-03-09T03:00:58.214Z,95361.38
2024-03-09T03:02:59.774Z,95366.25
2024-03-09T03:05:01.384Z,95369.47
2024-03-09T03:07:03.125Z,95369.22
2024-03-09T03:09:05.619Z,95361.06
2024-03-09T03:11:07.282Z,95372.13
2024-03-09T03:13:09.061Z,95357.97
2024-03-09T03:15:12.317Z,95356.72
2024-03-09T03:17:13.966Z,95360.44
2024-03-09T03:19:15.601Z,95356.63
2024-03-09T03:21:17.278Z,95328.75
2024-03-09T03:23:18.870Z,95340.50
2024-03-09T03:25:20.402Z,95340.94
2024-03-09T03:27:21.977Z,95326.78
2024-03-09T03:29:23.523Z,95314.63
2024-03-09T03:31:26.618Z,95305.72
2024-03-09T03:33:28.150Z,95295.34
2024-03-09T03:35:29.686Z,95290.88
2024-03-09T03:37:31.307Z,95278.63
2024-03-09T03:39:32.864Z,95271.59
2024-03-09T03:41:34.413Z,95289.09
2024-03-09T03:43:36.509Z,95309.38
2024-03-09T03:45:38.681Z,95318.75
2024-03-09T03:47:41.711Z,95313.41
2024-03-09T03:49:43.295Z,95291.47
2024-03-09T03:51:44.845Z,95299.16
2024-03-09T03:53:46.653Z,95297.22
2024-03-09T03:55:48.536Z,95293.00
2024-03-09T03:57:52.025Z,95276.34
2024-03-09T03:59:53.921Z,95273.94
2024-03-09T04:01:55.596Z,95263.97
2024-03-09T04:03:58.581Z,95276.06
2024-03-09T04:06:00.261Z,95260.25
2024-03-09T04:08:01.856Z,95275.91
2024-03-09T04:10:03.885Z,95272.25
2024-03-09T04:12:05.759Z,95256.47
2024-03-09T04:14:07.714Z,95240.00
2024-03-09T04:16:09.356Z,95244.44
2024-03-09T04:18:11.116Z,95246.28
2024-03-09T04:20:14.171Z,95243.94
2024-03-09T04:22:15.818Z,95234.66
2024-03-09T04:24:17.397Z,95220.84
2024-03-09T04:26:18.989Z,95227.03
2024-03-09T04:28:20.808Z,95225.94
2024-03-09T04:30:22.404Z,95231.94
2024-03-09T04:32:24.072Z,95228.78
2024-03-09T04:34:25.639Z,95216.31
2024-03-09T04:36:28.582Z,95207.31
2024-03-09T04:38:30.152Z,95214.66
2024-03-09T04:40:31.766Z,95217.22
2024-03-09T04:42:33.357Z,95207.31
2024-03-09T04:44:34.983Z,95220.69
2024-03-09T04:46:36.672Z,95227.69
2024-03-09T04:48:39.328Z,95222.41
2024-03-09T04:50:40.930Z,95222.41
2024-03-09T04:52:43.942Z,95227.31
2024-03-09T04:54:45.589Z,95230.31
2024-03-09T04:56:47.128Z,95244.66
2024-03-09T04:58:48.768Z,95251.84
2024-03-09T05:00:50.491Z,95257.75
2024-03-09T05:02:52.323Z,95256.13
2024-03-09T05:04:54.435Z,95250.31
2024-03-09T05:06:56.012Z,95250.84
2024-03-09T05:08:59.031Z,95267.84
2024-03-09T05:11:00.676Z,95252.66
2024-03-09T05:13:02.400Z,95259.66
2024-03-09T05:15:04.828Z,95255.19
2024-03-09T05:17:06.420Z,95251.03
2024-03-09T05:19:08.030Z,95247.19
2024-03-09T05:21:09.630Z,95245.75
2024-03-09T05:23:14.358Z,95248.56
2024-03-09T05:25:19.354Z,95248.91
2024-03-09T05:27:20.908Z,95259.53
2024-03-09T05:29:22.545Z,95258.25
2024-03-09T05:31:25.532Z,95264.91
2024-03-09T05:33:27.069Z,95268.19
2024-03-09T05:35:30.326Z,95257.19
2024-03-09T05:37:31.900Z,95242.34
2024-03-09T05:39:33.529Z,95253.44
2024-03-09T05:41:36.418Z,95251.00
2024-03-09T05:43:38.020Z,95251.06
2024-03-09T05:45:39.675Z,95244.69
2024-03-09T05:47:41.209Z,95250.41
2024-03-09T05:49:44.721Z,95254.50
2024-03-09T05:51:46.342Z,95253.56
2024-03-09T05:53:47.876Z,95256.50
2024-03-09T05:55:49.560Z,95245.03
2024-03-09T05:57:54.073Z,95245.75
2024-03-09T05:59:55.614Z,95256.75
2024-03-09T06:01:57.188Z,95266.56
2024-03-09T06:03:58.714Z,95250.47
2024-03-09T06:06:00.284Z,95260.94
2024-03-09T06:08:01.884Z,95253.56
2024-03-09T06:10:03.954Z,95255.56
2024-03-09T06:12:06.256Z,95262.13
2024-03-09T06:14:09.209Z,95255.91
2024-03-09T06:16:10.778Z,95251.31
2024-03-09T06:18:12.674Z,95265.63
2024-03-09T06:20:16.267Z,95241.78
2024-03-09T06:22:17.968Z,95274.75
2024-03-09T06:24:19.494Z,95275.22
2024-03-09T06:26:21.059Z,95279.91
2024-03-09T06:28:22.660Z,95275.00
2024-03-09T06:30:29.726Z,95270.91
2024-03-09T06:32:33.564Z,95261.06
2024-03-09T06:34:35.110Z,95270.44
2024-03-09T06:36:36.699Z,95276.63
2024-03-09T06:38:38.221Z,95266.16
2024-03-09T06:40:41.195Z,95266.63
2024-03-09T06:42:42.774Z,95278.63
2024-03-09T06:44:44.324Z,95272.41
2024-03-09T06:46:47.476Z,95277.56
2024-03-09T06:48:49.031Z,95272.66
2024-03-09T06:50:50.641Z,95277.56
2024-03-09T06:52:52.233Z,95276.28
2024-03-09T06:54:53.830Z,95278.56
2024-03-09T06:56:55.438Z,95278.19
2024-03-09T06:58:58.772Z,95281.72
2024-03-09T07:01:00.381Z,95278.25
2024-03-09T07:03:03.513Z,95284.47
2024-03-09T07:05:05.850Z,95283.66
2024-03-09T07:07:07.397Z,95281.69
2024-03-09T07:09:08.969Z,95281.88
2024-03-09T07:11:11.293Z,95277.06
2024-03-09T07:13:12.932Z,95269.81
2024-03-09T07:15:14.733Z,95234.13
2024-03-09T07:17:16.308Z,95255.72
2024-03-09T07:19:19.356Z,95268.63
2024-03-09T07:21:20.962Z,95250.47
2024-03-09T07:23:22.571Z,95258.75
2024-03-09T07:25:26.966Z,95262.22
2024-03-09T07:27:28.796Z,95276.28
2024-03-09T07:29:30.323Z,95261.13
2024-03-09T07:31:32.034Z,95259.75
2024-03-09T07:33:33.650Z,95254.84
2024-03-09T07:35:36.931Z,95255.22
2024-03-09T07:37:38.476Z,95254.50
2024-03-09T07:39:40.118Z,95253.75
2024-03-09T07:41:41.750Z,95232.75
2024-03-09T07:43:43.369Z,95256.16
2024-03-09T07:45:44.938Z,95255.41
2024-03-09T07:47:47.937Z,95257.59
2024-03-09T07:49:49.592Z,95249.97
2024-03-09T07:51:52.531Z,95257.59
2024-03-09T07:53:54.135Z,95261.75
2024-03-09T07:55:55.763Z,95258.28
2024-03-09T07:58:08.935Z,95261.16
2024-03-09T08:00:20.044Z,95267.25
2024-03-09T08:02:21.721Z,95263.19
2024-03-09T08:04:23.305Z,95267.34
2024-03-09T08:06:24.842Z,95266.06
2024-03-09T08:08:27.761Z,95270.69
2024-03-09T08:10:29.708Z,95264.78
2024-03-09T08:12:31.300Z,95264.84
2024-03-09T08:14:32.849Z,95265.16
2024-03-09T08:16:36.784Z,95255.63
2024-03-09T08:18:38.329Z,95250.53
2024-03-09T08:20:39.900Z,95245.59
2024-03-09T08:22:42.060Z,95242.41
2024-03-09T08:24:45.009Z,95248.84
2024-03-09T08:26:49.421Z,95226.84
2024-03-09T08:28:51.036Z,95249.38
2024-03-09T08:30:55.080Z,95260.22
2024-03-09T08:32:58.351Z,95251.03
2024-03-09T08:35:00.034Z,95259.13
2024-03-09T08:37:04.239Z,95260.41
2024-03-09T08:39:05.785Z,95256.94
2024-03-09T08:41:08.771Z,95259.63
2024-03-09T08:43:10.344Z,95252.31
2024-03-09T08:45:11.977Z,95245.03
2024-03-09T08:47:13.594Z,95249.56
2024-03-09T08:49:15.219Z,95253.72
2024-03-09T08:51:16.804Z,95252.94
2024-03-09T08:53:18.962Z,95232.78
2024-03-09T08:55:20.809Z,95242.00
2024-03-09T08:57:23.734Z,95232.19
2024-03-09T08:59:25.304Z,95243.25
2024-03-09T09:01:26.925Z,95235.13
2024-03-09T09:03:28.646Z,95233.94
2024-03-09T09:05:30.667Z,95223.34
2024-03-09T09:07:32.346Z,95231.94
2024-03-09T09:09:33.896Z,95225.22
2024-03-09T09:11:35.512Z,95226.28
2024-03-09T09:13:38.484Z,95224.66
2024-03-09T09:15:40.044Z,95225.91
2024-03-09T09:17:41.705Z,95220.00
2024-03-09T09:19:43.314Z,95221.84
2024-03-09T09:21:44.880Z,95215.31
2024-03-09T09:23:46.460Z,95217.75
2024-03-09T09:25:48.072Z,95215.31
2024-03-09T09:27:49.699Z,95202.66
2024-03-09T09:29:52.639Z,95208.78
2024-03-09T09:31:54.223Z,95205.50
2024-03-09T09:33:55.895Z,95205.72
2024-03-09T09:35:57.475Z,95189.41
2024-03-09T09:37:59.789Z,95191.44
2024-03-09T09:40:01.893Z,95187.31
2024-03-09T09:42:03.613Z,95183.00
2024-03-09T09:44:06.451Z,95188.09
2024-03-09T09:46:09.464Z,95165.47
2024-03-09T09:48:11.137Z,95171.50
2024-03-09T09:50:14.708Z,95181.88
2024-03-09T09:52:16.741Z,95157.38
2024-03-09T09:54:21.105Z,95174.69
2024-03-09T09:56:22.710Z,95173.84
2024-03-09T09:58:25.628Z,95168.53
2024-03-09T10:00:27.232Z,95167.03
2024-03-09T10:02:30.945Z,95173.34
2024-03-09T10:04:36.442Z,95181.03
2024-03-09T10:06:38.041Z,95166.09
2024-03-09T10:08:47.877Z,95161.16
2024-03-09T10:10:49.943Z,95161.34
2024-03-09T10:13:04.471Z,95149.00
2024-03-09T10:15:12.594Z,95149.44
2024-03-09T10:17:14.269Z,95149.66
2024-03-09T10:19:18.185Z,95156.72
2024-03-09T10:21:26.709Z,95152.72
2024-03-09T10:23:28.314Z,95141.88
2024-03-09T10:25:30.049Z,95146.91
2024-03-09T10:27:32.409Z,95142.50
2024-03-09T10:29:34.918Z,95124.78
2024-03-09T10:31:39.133Z,95111.88
2024-03-09T10:33:40.824Z,95107.81
2024-03-09T10:35:44.999Z,95102.84
2024-03-09T10:37:48.637Z,95086.38
2024-03-09T10:39:50.222Z,95084.59
2024-03-09T10:41:52.749Z,95101.75
2024-03-09T10:43:57.145Z,95098.78
2024-03-09T10:46:01.603Z,95081.41
2024-03-09T10:48:04.934Z,95079.38
2024-03-09T10:50:12.877Z,95087.81
2024-03-09T10:52:20.255Z,95082.53
2024-03-09T10:54:30.257Z,95078.72
2024-03-09T10:56:32.103Z,95094.25
2024-03-09T10:58:34.609Z,95093.00
2024-03-09T11:00:36.258Z,95083.59
2024-03-09T11:02:38.426Z,95093.38
2024-03-09T11:04:41.664Z,95087.59
2024-03-09T11:06:43.974Z,95086.13
2024-03-09T11:08:48.527Z,95086.41
2024-03-09T11:10:50.579Z,95081.91
2024-03-09T11:12:53.439Z,95079.97
2024-03-09T11:14:57.514Z,95080.78
2024-03-09T11:16:59.984Z,95064.97
2024-03-09T11:19:02.894Z,95077.59
2024-03-09T11:21:04.786Z,95058.81
2024-03-09T11:23:06.399Z,95065.22
2024-03-09T11:25:10.094Z,95066.84
2024-03-09T11:27:11.698Z,95060.69
2024-03-09T11:29:13.440Z,95057.44
2024-03-09T11:31:15.906Z,95057.34
2024-03-09T11:33:17.618Z,95062.91
2024-03-09T11:35:29.998Z,95065.25
2024-03-09T11:37:44.925Z,95055.28
2024-03-09T11:39:47.379Z,95040.56
2024-03-09T11:41:52.008Z,95051.91
2024-03-09T11:43:53.676Z,95047.16
2024-03-09T11:45:55.382Z,95039.53
2024-03-09T11:47:58.397Z,95046.84
2024-03-09T11:50:02.692Z,95026.75
2024-03-09T11:52:06.167Z,95032.78
2024-03-09T11:54:11.468Z,95029.88
2024-03-09T11:56:13.145Z,95009.13
2024-03-09T11:58:16.470Z,95008.66
2024-03-09T12:00:18.924Z,94988.16
2024-03-09T12:02:20.580Z,95016.19
2024-03-09T12:04:22.203Z,95021.06
2024-03-09T12:06:24.116Z,95022.13
2024-03-09T12:08:26.005Z,95020.72
2024-03-09T12:10:27.680Z,95022.56
2024-03-09T12:12:29.278Z,94994.16
2024-03-09T12:14:32.272Z,94989.84
2024-03-09T12:16:34.804Z,94992.38
2024-03-09T12:18:36.433Z,94954.94
2024-03-09T12:20:38.626Z,95006.94
2024-03-09T12:22:40.401Z,95003.22
2024-03-09T12:24:42.426Z,95013.31
2024-03-09T12:26:44.279Z,95008.78
2024-03-09T12:28:45.989Z,95016.41
2024-03-09T12:30:50.808Z,94992.94
2024-03-09T12:32:52.522Z,95004.03
2024-03-09T12:34:54.317Z,94998.69
2024-03-09T12:36:55.952Z,94988.31
2024-03-09T12:39:09.084Z,94962.72
2024-03-09T12:41:25.286Z,94984.44
2024-03-09T12:43:29.262Z,94987.03
2024-03-09T12:45:30.807Z,94970.34
2024-03-09T12:47:33.875Z,94991.41
2024-03-09T12:49:35.577Z,94986.72
2024-03-09T12:51:37.256Z,94943.13
2024-03-09T12:53:39.093Z,94975.50
2024-03-09T12:55:40.744Z,94947.13
2024-03-09T12:57:43.141Z,94969.13
2024-03-09T12:59:44.899Z,94962.06
2024-03-09T13:01:46.524Z,94977.38
2024-03-09T13:03:57.704Z,94976.97
2024-03-09T13:06:01.066Z,94968.56
2024-03-09T13:08:02.991Z,94949.31
2024-03-09T13:10:07.450Z,94966.47
2024-03-09T13:12:10.596Z,94958.53
2024-03-09T13:14:12.378Z,94963.22
2024-03-09T13:16:14.037Z,94966.31
2024-03-09T13:18:15.709Z,94907.81
2024-03-09T13:20:19.418Z,94957.06
2024-03-09T13:22:21.111Z,94922.25
2024-03-09T13:24:22.997Z,94910.56
2024-03-09T13:26:25.645Z,94891.75
2024-03-09T13:28:27.282Z,94922.63
2024-03-09T13:30:29.002Z,94905.84
2024-03-09T13:32:30.591Z,94943.53
2024-03-09T13:34:32.813Z,94947.03
2024-03-09T13:36:35.922Z,94924.84
2024-03-09T13:38:37.494Z,94940.50
2024-03-09T13:40:39.214Z,94930.09
2024-03-09T13:42:41.647Z,94937.56
2024-03-09T13:44:43.260Z,94878.81
2024-03-09T13:46:45.414Z,94929.06
2024-03-09T13:48:47.163Z,94934.75
2024-03-09T13:50:48.760Z,94915.53
2024-03-09T13:52:51.764Z,94875.34
2024-03-09T13:54:53.448Z,94890.44
2024-03-09T13:56:55.120Z,94928.84
2024-03-09T13:58:56.765Z,94938.44
2024-03-09T14:00:58.433Z,94911.91
2024-03-09T14:03:00.191Z,94936.44
2024-03-09T14:05:01.894Z,94891.59
2024-03-09T14:07:09.008Z,94919.63
2024-03-09T14:09:12.785Z,94918.97
2024-03-09T14:11:14.456Z,94894.38
2024-03-09T14:13:16.251Z,94887.66
2024-03-09T14:15:17.812Z,94894.53
2024-03-09T14:17:19.508Z,94889.69
2024-03-09T14:19:21.156Z,94900.91
2024-03-09T14:21:22.765Z,94907.00
2024-03-09T14:23:24.603Z,94905.88
2024-03-09T14:25:27.689Z,94889.06
2024-03-09T14:27:29.333Z,94906.53
2024-03-09T14:29:31.019Z,94887.28
2024-03-09T14:31:32.697Z,94868.56
2024-03-09T14:33:34.296Z,94877.63
2024-03-09T14:35:36.116Z,94875.84
2024-03-09T14:37:37.743Z,94886.63
2024-03-09T14:39:39.907Z,94872.88
2024-03-09T14:41:43.038Z,94885.31
2024-03-09T14:43:44.628Z,94872.88
2024-03-09T14:45:46.190Z,94858.13
2024-03-09T14:47:48.324Z,94865.09
2024-03-09T14:49:50.076Z,94873.84
2024-03-09T14:51:51.698Z,94868.66
2024-03-09T14:53:54.562Z,94858.06
2024-03-09T14:55:56.598Z,94843.56
2024-03-09T14:58:00.327Z,94845.50
2024-03-09T15:00:02.892Z,94859.59
2024-03-09T15:02:04.951Z,94861.69
2024-03-09T15:04:06.669Z,94857.34
2024-03-09T15:06:08.530Z,94863.47
2024-03-09T15:08:10.362Z,94845.19
2024-03-09T15:10:12.262Z,94823.19
2024-03-09T15:12:13.891Z,94849.41
2024-03-09T15:14:16.959Z,94862.34
2024-03-09T15:16:18.858Z,94862.28
2024-03-09T15:18:20.726Z,94851.41
2024-03-09T15:20:24.020Z,94857.97
2024-03-09T15:22:26.860Z,94860.91
2024-03-09T15:24:28.490Z,94830.91
2024-03-09T15:26:31.019Z,94861.03
2024-03-09T15:28:33.048Z,94836.91
2024-03-09T15:30:36.116Z,94835.84
2024-03-09T15:32:37.764Z,94853.41
2024-03-09T15:34:39.430Z,94842.56
2024-03-09T15:36:41.030Z,94849.97
2024-03-09T15:38:43.608Z,94828.50
2024-03-09T15:40:45.523Z,94817.44
2024-03-09T15:42:47.582Z,94848.28
2024-03-09T15:44:49.201Z,94814.09
2024-03-09T15:46:52.182Z,94822.00
2024-03-09T15:48:53.843Z,94844.94
2024-03-09T15:50:55.453Z,94851.72
2024-03-09T15:52:57.126Z,94846.22
2024-03-09T15:54:58.873Z,94843.63
2024-03-09T15:57:00.512Z,94831.72
2024-03-09T15:59:02.255Z,94820.16
2024-03-09T16:01:04.346Z,94845.06
2024-03-09T16:03:07.367Z,94835.34
2024-03-09T16:05:09.729Z,94836.16
2024-03-09T16:07:11.499Z,94845.53
2024-03-09T16:09:13.707Z,94839.53
2024-03-09T16:11:15.688Z,94827.25
2024-03-09T16:13:17.428Z,94826.78
2024-03-09T16:15:19.216Z,94836.16
2024-03-09T16:17:20.829Z,94803.88
2024-03-09T16:19:23.820Z,94795.66
2024-03-09T16:21:25.446Z,94811.50
2024-03-09T16:23:27.062Z,94813.03
2024-03-09T16:25:33.166Z,94825.19
2024-03-09T16:27:35.262Z,94805.50
2024-03-09T16:29:36.936Z,94820.66
2024-03-09T16:31:38.528Z,94805.66
2024-03-09T16:33:40.174Z,94774.06
2024-03-09T16:35:44.437Z,94817.56
2024-03-09T16:37:45.999Z,94810.03
2024-03-09T16:39:47.577Z,94818.75
2024-03-09T16:41:49.109Z,94813.19
2024-03-09T16:43:50.688Z,94810.06
2024-03-09T16:45:52.231Z,94807.06
2024-03-09T16:47:54.019Z,94811.41
2024-03-09T16:49:55.566Z,94812.44
2024-03-09T16:51:58.564Z,94814.44
2024-03-09T16:54:00.157Z,94814.91
2024-03-09T16:56:01.884Z,94799.19
2024-03-09T16:58:03.771Z,94810.66
2024-03-09T17:00:06.662Z,94809.84
2024-03-09T17:02:08.268Z,94816.66
2024-03-09T17:04:09.902Z,94816.09
2024-03-09T17:06:11.499Z,94818.53
2024-03-09T17:08:14.585Z,94821.53
2024-03-09T17:10:16.644Z,94815.63
2024-03-09T17:12:18.286Z,94808.91
2024-03-09T17:14:20.006Z,94808.91
2024-03-09T17:16:21.669Z,94801.03
2024-03-09T17:18:23.306Z,94820.47
2024-03-09T17:20:28.329Z,94828.94
2024-03-09T17:22:31.424Z,94827.19
2024-03-09T17:24:34.317Z,94826.03
2024-03-09T17:26:36.078Z,94823.38
2024-03-09T17:28:37.643Z,94826.84
2024-03-09T17:30:39.205Z,94835.31
2024-03-09T17:32:45.545Z,94833.81
2024-03-09T17:34:47.974Z,94833.22
2024-03-09T17:36:49.565Z,94840.16
2024-03-09T17:38:51.140Z,94826.97
2024-03-09T17:40:54.066Z,94828.34
2024-03-09T17:42:55.874Z,94831.13
2024-03-09T17:44:57.612Z,94827.44
2024-03-09T17:46:59.270Z,94832.06
2024-03-09T17:49:00.899Z,94821.06
2024-03-09T17:51:02.487Z,94834.97
2024-03-09T17:53:04.495Z,94830.56
2024-03-09T17:55:07.841Z,94819.09
2024-03-09T17:57:10.773Z,94829.97
2024-03-09T17:59:12.543Z,94814.47
2024-03-09T18:01:14.261Z,94817.94
2024-03-09T18:03:15.920Z,94804.28
2024-03-09T18:05:17.759Z,94801.28
2024-03-09T18:07:19.341Z,94811.44
2024-03-09T18:09:20.966Z,94815.03
2024-03-09T18:11:22.699Z,94815.63
2024-03-09T18:13:25.707Z,94827.66
2024-03-09T18:15:27.575Z,94789.41
2024-03-09T18:17:29.211Z,94829.63
2024-03-09T18:19:30.864Z,94816.53
2024-03-09T18:21:32.415Z,94802.97
2024-03-09T18:23:34.115Z,94800.28
2024-03-09T18:25:36.580Z,94815.50
2024-03-09T18:27:38.126Z,94810.63
2024-03-09T18:29:41.034Z,94804.81
2024-03-09T18:31:44.002Z,94776.69
2024-03-09T18:33:46.728Z,94795.66
2024-03-09T18:35:48.754Z,94786.63
2024-03-09T18:37:50.999Z,94784.66
2024-03-09T18:39:52.591Z,94784.53
2024-03-09T18:41:54.144Z,94787.91
2024-03-09T18:43:55.788Z,94784.09
2024-03-09T18:45:58.898Z,94779.56
2024-03-09T18:48:00.536Z,94786.63
2024-03-09T18:50:02.304Z,94780.84
2024-03-09T18:52:04.430Z,94783.16
2024-03-09T18:54:06.045Z,94780.97
2024-03-09T18:56:07.744Z,94776.00
2024-03-09T18:58:09.569Z,94775.53
2024-03-09T19:00:13.875Z,94761.75
2024-03-09T19:02:16.808Z,94762.34
2024-03-09T19:04:18.493Z,94736.63
2024-03-09T19:06:20.036Z,94741.63
2024-03-09T19:08:21.632Z,94741.25
2024-03-09T19:10:23.730Z,94735.69
2024-03-09T19:12:25.314Z,94741.25
2024-03-09T19:14:26.977Z,94742.88
2024-03-09T19:16:28.536Z,94746.09
2024-03-09T19:18:31.496Z,94750.16
2024-03-09T19:20:33.083Z,94742.38
2024-03-09T19:22:34.640Z,94740.63
2024-03-09T19:24:36.225Z,94753.34
2024-03-09T19:26:43.310Z,94732.44
2024-03-09T19:28:44.941Z,94718.28
2024-03-09T19:30:46.573Z,94731.72
2024-03-09T19:32:49.278Z,94720.19
2024-03-09T19:34:52.240Z,94720.13
2024-03-09T19:36:53.804Z,94717.84
2024-03-09T19:38:55.461Z,94696.41
2024-03-09T19:40:57.003Z,94695.63
2024-03-09T19:42:59.482Z,94691.44
2024-03-09T19:45:01.205Z,94689.38
2024-03-09T19:47:02.886Z,94695.38
2024-03-09T19:49:04.482Z,94687.75
2024-03-09T19:51:07.368Z,94681.84
2024-03-09T19:53:08.952Z,94673.41
2024-03-09T19:55:10.718Z,94684.50
2024-03-09T19:57:12.445Z,94681.84
2024-03-09T19:59:14.172Z,94678.75
2024-03-09T20:01:15.807Z,94682.44
2024-03-09T20:03:17.491Z,94686.59
2024-03-09T20:05:19.364Z,94684.75
2024-03-09T20:07:22.309Z,94687.56
2024-03-09T20:09:23.949Z,94687.56
2024-03-09T20:11:25.663Z,94689.19
2024-03-09T20:13:27.302Z,94683.78
2024-03-09T20:15:29.337Z,94683.28
2024-03-09T20:17:31.297Z,94680.34
2024-03-09T20:19:32.980Z,94690.06
2024-03-09T20:21:34.557Z,94689.03
2024-03-09T20:23:37.531Z,94669.38
2024-03-09T20:25:39.111Z,94677.13
2024-03-09T20:27:41.360Z,94676.09
2024-03-09T20:29:42.933Z,94672.72
2024-03-09T20:31:44.470Z,94664.31
2024-03-09T20:33:46.072Z,94669.91
2024-03-09T20:35:47.728Z,94653.13
2024-03-09T20:37:49.727Z,94661.22
2024-03-09T20:39:52.783Z,94680.25
2024-03-09T20:41:54.359Z,94672.44
2024-03-09T20:43:55.897Z,94672.88
2024-03-09T20:45:57.506Z,94659.09
2024-03-09T20:47:59.108Z,94661.66
2024-03-09T20:50:00.779Z,94655.50
2024-03-09T20:52:02.568Z,94662.09
2024-03-09T20:54:04.416Z,94659.19
2024-03-09T20:56:07.706Z,94647.88
2024-03-09T20:58:09.294Z,94647.50
2024-03-09T21:00:12.181Z,94644.16
2024-03-09T21:02:13.790Z,94632.38
2024-03-09T21:04:15.385Z,94625.00
2024-03-09T21:06:17.059Z,94638.19
2024-03-09T21:08:18.734Z,94629.84
2024-03-09T21:10:20.327Z,94627.34
2024-03-09T21:12:23.244Z,94635.97
2024-03-09T21:14:24.862Z,94637.25
2024-03-09T21:16:26.448Z,94635.97
2024-03-09T21:18:28.228Z,94636.06
2024-03-09T21:20:30.002Z,94621.84
2024-03-09T21:22:31.611Z,94635.69
2024-03-09T21:24:33.457Z,94639.19
2024-03-09T21:26:35.080Z,94635.97
2024-03-09T21:28:38.030Z,94629.13
2024-03-09T21:30:39.776Z,94621.00
2024-03-09T21:32:42.325Z,94619.31
2024-03-09T21:34:43.974Z,94622.72
2024-03-09T21:36:45.635Z,94599.31
2024-03-09T21:38:47.377Z,94608.06
2024-03-09T21:40:48.983Z,94605.53
2024-03-09T21:42:51.308Z,94611.44
2024-03-09T21:44:54.235Z,94596.44
2024-03-09T21:46:55.834Z,94600.94
2024-03-09T21:48:57.496Z,94596.00
2024-03-09T21:51:07.217Z,94597.72
2024-03-09T21:53:10.445Z,94574.81
2024-03-09T21:55:12.174Z,94597.25
2024-03-09T21:57:13.769Z,94583.50
2024-03-09T21:59:15.353Z,94582.59
2024-03-09T22:01:18.285Z,94576.84
2024-03-09T22:03:19.835Z,94572.44
2024-03-09T22:05:22.195Z,94582.16
2024-03-09T22:07:23.849Z,94579.25
2024-03-09T22:09:25.418Z,94579.63
2024-03-09T22:11:27.156Z,94575.00
2024-03-09T22:13:28.832Z,94553.28
2024-03-09T22:15:30.388Z,94575.22
2024-03-09T22:17:33.564Z,94577.19
2024-03-09T22:19:35.281Z,94573.72
2024-03-09T22:21:36.877Z,94575.56
2024-03-09T22:23:38.564Z,94573.28
2024-03-09T22:25:40.152Z,94568.28
2024-03-09T22:27:41.824Z,94511.72
2024-03-09T22:29:44.923Z,94568.16
2024-03-09T22:31:46.523Z,94570.00
2024-03-09T22:33:49.450Z,94557.84
2024-03-09T22:35:51.263Z,94568.47
2024-03-09T22:37:52.985Z,94561.47
2024-03-09T22:39:54.682Z,94565.50
2024-03-09T22:41:56.311Z,94551.53
2024-03-09T22:43:58.180Z,94544.09
2024-03-09T22:45:59.744Z,94559.84
2024-03-09T22:48:01.293Z,94554.63
2024-03-09T22:50:05.274Z,94560.16
2024-03-09T22:52:07.732Z,94564.50
2024-03-09T22:54:09.311Z,94549.03
2024-03-09T22:56:10.933Z,94551.25
2024-03-09T22:58:12.519Z,94528.72
2024-03-09T23:00:15.818Z,94549.50
2024-03-09T23:02:17.699Z,94552.72
2024-03-09T23:04:19.364Z,94550.66
2024-03-09T23:06:22.281Z,94537.72
2024-03-09T23:08:23.922Z,94546.97
2024-03-09T23:10:25.787Z,94547.13
2024-03-09T23:12:27.694Z,94540.78
2024-03-09T23:14:29.397Z,94547.91
2024-03-09T23:16:31.549Z,94548.41
2024-03-09T23:18:33.413Z,94548.88
2024-03-09T23:20:35.248Z,94547.47
2024-03-09T23:22:38.410Z,94540.91
2024-03-09T23:24:39.999Z,94542.75
2024-03-09T23:26:41.624Z,94548.41
2024-03-09T23:28:43.201Z,94534.66
2024-03-09T23:30:44.817Z,94537.34
2024-03-09T23:32:47.124Z,94545.88
2024-03-09T23:34:48.840Z,94548.09
2024-03-09T23:36:50.629Z,94541.75
2024-03-09T23:38:53.608Z,94542.19
2024-03-09T23:40:55.466Z,94530.88
2024-03-09T23:42:57.063Z,94539.41
2024-03-09T23:44:58.690Z,94546.94
2024-03-09T23:47:00.238Z,94547.97
2024-03-09T23:49:01.920Z,94553.28
2024-03-09T23:51:04.020Z,94533.66
2024-03-09T23:53:05.691Z,94541.66
2024-03-09T23:55:09.296Z,94550.66
2024-03-09T23:57:10.891Z,94546.88